首页
METAR-TAF:

METAR-TAF

机场 :

克赖斯特彻奇国际机场

基督城, 新西兰

纬度: 43-29S, 经度: 172-33E, 海拔: 38米

当前天气观测

该预报发布于43分钟前的19:00 UTC
风速2节,风向
温度 14°C
湿度 94%
气压 1007 hPa
能见度10公里或以上

METAR: NZCH 261900Z AUTO 10002KT 9999 NCD 14/13 Q1007 NOSIG

时间: 08:43 (19:43 UTC)

预报

该预报发布于2小时和42分钟前的17:01 UTC
预报有效从26日的 18点(UTC)到 27日的 18点(UTC)
风速5节,风向东转东北
能见度10公里或以上
多云层高于7000英尺
短暂存在
从 26日的 18点(UTC)到 26日的 20点(UTC)
能見度: 1500
轻雾
成为
从 26日的 21点(UTC)到 26日的 23点(UTC)
风速12节,风向北转西北
成为
从 27日的 04点(UTC)到 27日的 06点(UTC)
风速8节,风向东北

TAF: NZCH 261701Z 2618/2718 06005KT 9999 BKN070 TEMPO 2618/2620 1500 BR BECMG 2621/2623 34012KT BECMG 2704/2706 04008KT

超过4000个机场的气象观测和天气预报(METAR&TAF报告)。

可查询的气象台以黄色和红色小点在地图上表示。

将鼠标移到小点上方,可查看气象台名称。

然后点击查看天气观测和预报。

如需切换地图:点击带黑十字的绿色按钮放大地图;点击带横线的绿色按钮缩小地图;或者点击绿色箭头查看邻近地区的地图。


METAR-TAF: